Aeroporto :
LOGIN :

Iscrizione | Disclaimer

   EN    FR    IT 

 










Sommario :    VFR   VFR Marginale   IFR   IFR Intensivo   IFR Molto Intensivo
Visibilità : 
Base nubi : 
>= 8 km
>= 3000ft
5 / 8 km
1000 / 3000 ft
1500m / 5 km
500 / 1000 ft
800 / 1500m
200 / 500 ft
< 800m
< 200 ft
Simboli :   Temporali  Nebbia  Neve Forte  Precipitazioni Forti  Vento > 20 kt
SIGMETs :   Varie  Temporali  Ghiacco  Turbolenza  Onda orograficha  Ceneri Vulcaniche






- Altitudine del aeroporto : 26 ft
- Codice IATA : GLA


EGPF - Glasgow

ULTIMO METAR :
  • 122250Z AUTO 23005KT 9999 NCD M02/M02 Q1001

METARs OBSOLETI :
  • 122220Z AUTO 23005KT 9999 NCD M01/M01 Q1001
  • 122150Z AUTO 21004KT 9999 NCD 01/00 Q1001
  • 122120Z AUTO VRB03KT 9999 NCD 01/01 Q1001
  • 122050Z AUTO VRB01KT 9999 FEW042 01/01 Q1001

TAF AMD TAF EGPF
Valido dal 12 a 21 ore il 13 a 18 ore UTC


122114Z 1221/1318 30006KT 9999 SCT030
TEMPO 1221/1312 3000 BR
PROB30 1300/1311 0300 FZFG BKN000
ATIS : +44 141 887 7449



MetMap, La meteo Aeronautica in un colpo d'occhio ! - Copyright ORBIFLY Dicembre 2007 - Disclaimer

ORBIFLY MET'MAP TEAM :

Programmazione e sviluppo : Alexandra Zaïnal
Concezione e sviluppo : Baudouin d'Aumeries
Co-Programmazione e sviluppo : Marc-Olivier Méhu
Supporto tecnico e logistico : Manuel Goepfert
Aiuto per la traduzione : Arnaldo La Scala

Contatto : metmap@orbifly.com




FONTI E CREDITI :

   NOAA